sensor_id;sensor_type;location;lat;lon;timestamp;P1;durP1;ratioP1;P2;durP2;ratioP2
63534;SDS011;55128;50.230;18.944;2022-09-12T00:04:33;9.07;;;6.30;;
63534;SDS011;55128;50.230;18.944;2022-09-12T00:09:34;8.60;;;5.80;;
63534;SDS011;55128;50.230;18.944;2022-09-12T00:14:34;10.02;;;5.63;;
63534;SDS011;55128;50.230;18.944;2022-09-12T00:19:35;7.30;;;5.45;;
63534;SDS011;55128;50.230;18.944;2022-09-12T00:24:36;7.82;;;6.40;;
63534;SDS011;55128;50.230;18.944;2022-09-12T00:29:36;6.75;;;5.88;;
63534;SDS011;55128;50.230;18.944;2022-09-12T00:34:37;6.50;;;5.80;;
63534;SDS011;55128;50.230;18.944;2022-09-12T00:39:38;9.50;;;6.13;;
63534;SDS011;55128;50.230;18.944;2022-09-12T00:44:43;7.75;;;6.15;;
63534;SDS011;55128;50.230;18.944;2022-09-12T00:55:13;7.28;;;6.22;;
63534;SDS011;55128;50.230;18.944;2022-09-12T01:00:17;8.82;;;7.65;;
63534;SDS011;55128;50.230;18.944;2022-09-12T01:05:21;9.90;;;7.60;;
63534;SDS011;55128;50.230;18.944;2022-09-12T01:10:24;11.13;;;7.83;;
63534;SDS011;55128;50.230;18.944;2022-09-12T01:15:24;10.20;;;7.38;;
63534;SDS011;55128;50.230;18.944;2022-09-12T01:30:47;8.10;;;7.30;;
63534;SDS011;55128;50.230;18.944;2022-09-12T01:36:21;10.05;;;7.38;;
63534;SDS011;55128;50.230;18.944;2022-09-12T01:47:10;9.65;;;8.65;;
63534;SDS011;55128;50.230;18.944;2022-09-12T01:52:24;9.73;;;8.80;;
63534;SDS011;55128;50.230;18.944;2022-09-12T01:57:36;10.43;;;9.15;;
63534;SDS011;55128;50.230;18.944;2022-09-12T02:08:08;8.10;;;7.30;;
63534;SDS011;55128;50.230;18.944;2022-09-12T02:13:37;9.88;;;8.27;;
63534;SDS011;55128;50.230;18.944;2022-09-12T02:18:48;11.00;;;8.32;;
63534;SDS011;55128;50.230;18.944;2022-09-12T02:23:56;10.98;;;7.95;;
63534;SDS011;55128;50.230;18.944;2022-09-12T02:29:02;8.00;;;7.20;;
63534;SDS011;55128;50.230;18.944;2022-09-12T02:39:09;7.72;;;6.78;;
63534;SDS011;55128;50.230;18.944;2022-09-12T02:44:10;9.55;;;7.65;;
63534;SDS011;55128;50.230;18.944;2022-09-12T02:49:10;8.52;;;7.45;;
63534;SDS011;55128;50.230;18.944;2022-09-12T02:54:12;9.02;;;7.38;;
63534;SDS011;55128;50.230;18.944;2022-09-12T02:59:16;8.63;;;7.43;;
63534;SDS011;55128;50.230;18.944;2022-09-12T03:14:55;9.50;;;8.50;;
63534;SDS011;55128;50.230;18.944;2022-09-12T03:25:42;11.35;;;8.57;;
63534;SDS011;55128;50.230;18.944;2022-09-12T03:30:53;10.05;;;8.73;;
63534;SDS011;55128;50.230;18.944;2022-09-12T03:35:55;10.68;;;8.93;;
63534;SDS011;55128;50.230;18.944;2022-09-12T03:40:56;10.82;;;9.02;;
63534;SDS011;55128;50.230;18.944;2022-09-12T03:45:56;9.88;;;8.65;;
63534;SDS011;55128;50.230;18.944;2022-09-12T03:51:04;11.40;;;9.65;;
63534;SDS011;55128;50.230;18.944;2022-09-12T03:56:07;10.90;;;9.80;;
63534;SDS011;55128;50.230;18.944;2022-09-12T04:01:10;10.52;;;9.43;;
63534;SDS011;55128;50.230;18.944;2022-09-12T04:06:13;9.70;;;8.23;;
63534;SDS011;55128;50.230;18.944;2022-09-12T04:11:15;9.18;;;7.55;;
63534;SDS011;55128;50.230;18.944;2022-09-12T04:16:17;8.95;;;7.93;;
63534;SDS011;55128;50.230;18.944;2022-09-12T04:21:18;8.80;;;7.93;;
63534;SDS011;55128;50.230;18.944;2022-09-12T04:26:23;8.93;;;7.82;;
63534;SDS011;55128;50.230;18.944;2022-09-12T04:31:24;8.30;;;7.50;;
63534;SDS011;55128;50.230;18.944;2022-09-12T04:36:25;9.73;;;7.97;;
63534;SDS011;55128;50.230;18.944;2022-09-12T04:41:28;10.93;;;8.43;;
63534;SDS011;55128;50.230;18.944;2022-09-12T04:46:34;9.18;;;7.45;;
63534;SDS011;55128;50.230;18.944;2022-09-12T04:51:38;8.75;;;7.82;;
63534;SDS011;55128;50.230;18.944;2022-09-12T04:56:40;11.30;;;9.57;;
63534;SDS011;55128;50.230;18.944;2022-09-12T05:01:43;11.07;;;9.98;;
63534;SDS011;55128;50.230;18.944;2022-09-12T05:06:43;13.95;;;11.55;;
63534;SDS011;55128;50.230;18.944;2022-09-12T05:11:46;20.30;;;15.32;;
63534;SDS011;55128;50.230;18.944;2022-09-12T05:16:47;27.90;;;23.05;;
63534;SDS011;55128;50.230;18.944;2022-09-12T05:21:48;21.48;;;19.15;;
63534;SDS011;55128;50.230;18.944;2022-09-12T05:26:49;19.23;;;17.23;;
63534;SDS011;55128;50.230;18.944;2022-09-12T05:31:50;14.25;;;12.75;;
63534;SDS011;55128;50.230;18.944;2022-09-12T05:36:51;12.52;;;11.38;;
63534;SDS011;55128;50.230;18.944;2022-09-12T05:41:51;9.98;;;8.98;;
63534;SDS011;55128;50.230;18.944;2022-09-12T05:46:52;10.00;;;8.40;;
63534;SDS011;55128;50.230;18.944;2022-09-12T05:51:52;6.75;;;4.85;;
63534;SDS011;55128;50.230;18.944;2022-09-12T05:56:53;5.88;;;4.97;;
63534;SDS011;55128;50.230;18.944;2022-09-12T06:01:54;5.93;;;4.22;;
63534;SDS011;55128;50.230;18.944;2022-09-12T06:06:54;8.20;;;5.40;;
63534;SDS011;55128;50.230;18.944;2022-09-12T06:11:55;7.15;;;4.35;;
63534;SDS011;55128;50.230;18.944;2022-09-12T06:16:55;5.85;;;4.40;;
63534;SDS011;55128;50.230;18.944;2022-09-12T06:21:56;5.75;;;4.35;;
63534;SDS011;55128;50.230;18.944;2022-09-12T06:26:56;5.68;;;4.15;;
63534;SDS011;55128;50.230;18.944;2022-09-12T06:31:57;5.65;;;4.60;;
63534;SDS011;55128;50.230;18.944;2022-09-12T06:36:58;6.18;;;4.75;;
63534;SDS011;55128;50.230;18.944;2022-09-12T06:41:58;6.00;;;5.28;;
63534;SDS011;55128;50.230;18.944;2022-09-12T06:46:59;6.88;;;5.05;;
63534;SDS011;55128;50.230;18.944;2022-09-12T06:51:59;5.03;;;4.10;;
63534;SDS011;55128;50.230;18.944;2022-09-12T06:57:00;5.18;;;3.58;;
63534;SDS011;55128;50.230;18.944;2022-09-12T07:02:01;4.78;;;3.92;;
63534;SDS011;55128;50.230;18.944;2022-09-12T07:07:02;5.05;;;3.70;;
63534;SDS011;55128;50.230;18.944;2022-09-12T07:12:02;5.20;;;3.50;;
63534;SDS011;55128;50.230;18.944;2022-09-12T07:17:03;4.90;;;3.20;;
63534;SDS011;55128;50.230;18.944;2022-09-12T07:22:04;4.72;;;2.50;;
63534;SDS011;55128;50.230;18.944;2022-09-12T07:27:05;5.28;;;3.08;;
63534;SDS011;55128;50.230;18.944;2022-09-12T07:32:06;4.63;;;3.45;;
63534;SDS011;55128;50.230;18.944;2022-09-12T07:37:06;5.47;;;2.90;;
63534;SDS011;55128;50.230;18.944;2022-09-12T07:42:07;3.85;;;2.53;;
63534;SDS011;55128;50.230;18.944;2022-09-12T07:47:07;4.25;;;2.13;;
63534;SDS011;55128;50.230;18.944;2022-09-12T07:52:08;2.67;;;2.08;;
63534;SDS011;55128;50.230;18.944;2022-09-12T07:57:09;3.40;;;2.13;;
63534;SDS011;55128;50.230;18.944;2022-09-12T08:02:10;4.18;;;2.30;;
63534;SDS011;55128;50.230;18.944;2022-09-12T08:07:13;4.10;;;2.20;;
63534;SDS011;55128;50.230;18.944;2022-09-12T08:12:14;3.22;;;2.35;;
63534;SDS011;55128;50.230;18.944;2022-09-12T08:17:15;3.38;;;2.30;;
63534;SDS011;55128;50.230;18.944;2022-09-12T08:22:16;3.33;;;2.15;;
63534;SDS011;55128;50.230;18.944;2022-09-12T08:27:21;5.05;;;2.50;;
63534;SDS011;55128;50.230;18.944;2022-09-12T08:32:21;5.00;;;2.10;;
63534;SDS011;55128;50.230;18.944;2022-09-12T08:37:22;3.03;;;2.00;;
63534;SDS011;55128;50.230;18.944;2022-09-12T08:42:26;4.60;;;2.20;;
63534;SDS011;55128;50.230;18.944;2022-09-12T08:47:39;4.55;;;2.50;;
63534;SDS011;55128;50.230;18.944;2022-09-12T08:57:58;3.88;;;2.35;;
63534;SDS011;55128;50.230;18.944;2022-09-12T09:08:19;4.70;;;1.90;;
63534;SDS011;55128;50.230;18.944;2022-09-12T09:13:42;3.38;;;2.10;;
63534;SDS011;55128;50.230;18.944;2022-09-12T09:19:14;4.13;;;2.03;;
63534;SDS011;55128;50.230;18.944;2022-09-12T09:24:20;3.25;;;1.80;;
63534;SDS011;55128;50.230;18.944;2022-09-12T09:29:27;3.40;;;2.00;;
63534;SDS011;55128;50.230;18.944;2022-09-12T09:34:33;3.03;;;1.90;;
63534;SDS011;55128;50.230;18.944;2022-09-12T09:39:39;2.95;;;1.80;;
63534;SDS011;55128;50.230;18.944;2022-09-12T09:44:53;3.40;;;1.90;;
63534;SDS011;55128;50.230;18.944;2022-09-12T09:49:58;3.97;;;1.83;;
63534;SDS011;55128;50.230;18.944;2022-09-12T09:54:59;3.40;;;1.70;;
63534;SDS011;55128;50.230;18.944;2022-09-12T10:00:35;3.40;;;1.40;;
63534;SDS011;55128;50.230;18.944;2022-09-12T10:05:32;2.40;;;1.52;;
63534;SDS011;55128;50.230;18.944;2022-09-12T10:10:35;4.53;;;1.80;;
63534;SDS011;55128;50.230;18.944;2022-09-12T10:15:35;2.33;;;1.60;;
63534;SDS011;55128;50.230;18.944;2022-09-12T10:20:41;3.30;;;1.70;;
63534;SDS011;55128;50.230;18.944;2022-09-12T10:25:45;3.25;;;1.80;;
63534;SDS011;55128;50.230;18.944;2022-09-12T10:35:53;4.47;;;1.50;;
63534;SDS011;55128;50.230;18.944;2022-09-12T10:40:59;2.88;;;1.50;;
63534;SDS011;55128;50.230;18.944;2022-09-12T10:56:30;4.20;;;1.55;;
63534;SDS011;55128;50.230;18.944;2022-09-12T11:01:37;3.03;;;1.70;;
63534;SDS011;55128;50.230;18.944;2022-09-12T11:38:46;4.00;;;1.70;;
63534;SDS011;55128;50.230;18.944;2022-09-12T11:43:56;2.60;;;1.67;;
63534;SDS011;55128;50.230;18.944;2022-09-12T11:54:20;2.97;;;1.80;;
63534;SDS011;55128;50.230;18.944;2022-09-12T12:09:58;2.60;;;1.70;;
63534;SDS011;55128;50.230;18.944;2022-09-12T12:14:59;3.90;;;1.80;;
63534;SDS011;55128;50.230;18.944;2022-09-12T12:20:02;3.58;;;1.60;;
63534;SDS011;55128;50.230;18.944;2022-09-12T12:25:05;2.10;;;1.20;;
63534;SDS011;55128;50.230;18.944;2022-09-12T12:35:40;2.38;;;1.30;;
63534;SDS011;55128;50.230;18.944;2022-09-12T12:40:42;3.05;;;1.58;;
63534;SDS011;55128;50.230;18.944;2022-09-12T12:45:44;4.40;;;1.80;;
63534;SDS011;55128;50.230;18.944;2022-09-12T12:50:47;3.30;;;1.60;;
63534;SDS011;55128;50.230;18.944;2022-09-12T12:55:48;3.50;;;1.70;;
63534;SDS011;55128;50.230;18.944;2022-09-12T13:06:54;2.47;;;1.60;;
63534;SDS011;55128;50.230;18.944;2022-09-12T13:11:42;3.10;;;1.60;;
63534;SDS011;55128;50.230;18.944;2022-09-12T13:16:53;3.55;;;1.58;;
63534;SDS011;55128;50.230;18.944;2022-09-12T13:22:05;3.00;;;1.30;;
63534;SDS011;55128;50.230;18.944;2022-09-12T13:27:21;5.32;;;2.10;;
63534;SDS011;55128;50.230;18.944;2022-09-12T13:32:23;3.20;;;1.90;;
63534;SDS011;55128;50.230;18.944;2022-09-12T13:42:40;2.50;;;1.73;;
63534;SDS011;55128;50.230;18.944;2022-09-12T13:47:44;3.33;;;1.83;;
63534;SDS011;55128;50.230;18.944;2022-09-12T13:58:05;4.40;;;1.67;;
63534;SDS011;55128;50.230;18.944;2022-09-12T14:03:48;2.55;;;1.85;;
63534;SDS011;55128;50.230;18.944;2022-09-12T14:09:11;3.47;;;1.80;;
63534;SDS011;55128;50.230;18.944;2022-09-12T14:14:38;3.88;;;1.73;;
63534;SDS011;55128;50.230;18.944;2022-09-12T14:19:43;2.87;;;1.60;;
63534;SDS011;55128;50.230;18.944;2022-09-12T14:24:45;2.22;;;1.80;;
63534;SDS011;55128;50.230;18.944;2022-09-12T14:30:01;5.20;;;2.17;;
63534;SDS011;55128;50.230;18.944;2022-09-12T14:35:18;2.70;;;1.85;;
63534;SDS011;55128;50.230;18.944;2022-09-12T14:40:21;2.55;;;1.90;;
63534;SDS011;55128;50.230;18.944;2022-09-12T14:45:29;2.67;;;1.63;;
63534;SDS011;55128;50.230;18.944;2022-09-12T14:50:31;2.78;;;1.67;;
63534;SDS011;55128;50.230;18.944;2022-09-12T14:55:40;4.20;;;1.48;;
63534;SDS011;55128;50.230;18.944;2022-09-12T15:06:02;3.10;;;1.65;;
63534;SDS011;55128;50.230;18.944;2022-09-12T15:11:06;3.67;;;1.70;;
63534;SDS011;55128;50.230;18.944;2022-09-12T15:16:08;3.05;;;1.80;;
63534;SDS011;55128;50.230;18.944;2022-09-12T15:21:15;3.50;;;1.60;;
63534;SDS011;55128;50.230;18.944;2022-09-12T15:26:19;2.67;;;1.50;;
63534;SDS011;55128;50.230;18.944;2022-09-12T15:31:25;2.25;;;1.50;;
63534;SDS011;55128;50.230;18.944;2022-09-12T15:36:28;5.38;;;1.65;;
63534;SDS011;55128;50.230;18.944;2022-09-12T15:41:33;3.50;;;1.90;;
63534;SDS011;55128;50.230;18.944;2022-09-12T15:46:36;4.25;;;1.50;;
63534;SDS011;55128;50.230;18.944;2022-09-12T15:51:36;2.85;;;2.00;;
63534;SDS011;55128;50.230;18.944;2022-09-12T15:56:37;3.53;;;1.60;;
63534;SDS011;55128;50.230;18.944;2022-09-12T16:01:37;2.63;;;1.42;;
63534;SDS011;55128;50.230;18.944;2022-09-12T16:06:38;2.45;;;1.52;;
63534;SDS011;55128;50.230;18.944;2022-09-12T16:11:38;2.53;;;1.45;;
63534;SDS011;55128;50.230;18.944;2022-09-12T16:16:39;3.55;;;1.85;;
63534;SDS011;55128;50.230;18.944;2022-09-12T16:21:40;2.88;;;1.90;;
63534;SDS011;55128;50.230;18.944;2022-09-12T16:26:41;6.53;;;1.98;;
63534;SDS011;55128;50.230;18.944;2022-09-12T16:31:42;4.63;;;1.95;;
63534;SDS011;55128;50.230;18.944;2022-09-12T16:36:42;3.15;;;2.10;;
63534;SDS011;55128;50.230;18.944;2022-09-12T16:41:44;3.53;;;2.45;;
63534;SDS011;55128;50.230;18.944;2022-09-12T16:46:45;4.55;;;2.80;;
63534;SDS011;55128;50.230;18.944;2022-09-12T16:51:45;3.05;;;2.40;;
63534;SDS011;55128;50.230;18.944;2022-09-12T16:56:46;5.07;;;2.70;;
63534;SDS011;55128;50.230;18.944;2022-09-12T17:01:48;3.80;;;2.92;;
63534;SDS011;55128;50.230;18.944;2022-09-12T17:06:50;4.97;;;3.00;;
63534;SDS011;55128;50.230;18.944;2022-09-12T17:11:51;4.75;;;2.60;;
63534;SDS011;55128;50.230;18.944;2022-09-12T17:16:52;4.43;;;2.60;;
63534;SDS011;55128;50.230;18.944;2022-09-12T17:21:53;5.65;;;2.70;;
63534;SDS011;55128;50.230;18.944;2022-09-12T17:26:53;3.75;;;2.72;;
63534;SDS011;55128;50.230;18.944;2022-09-12T17:31:56;3.72;;;2.95;;
63534;SDS011;55128;50.230;18.944;2022-09-12T17:36:56;6.45;;;3.28;;
63534;SDS011;55128;50.230;18.944;2022-09-12T17:41:57;5.80;;;3.72;;
63534;SDS011;55128;50.230;18.944;2022-09-12T17:46:58;5.57;;;3.85;;
63534;SDS011;55128;50.230;18.944;2022-09-12T17:51:59;5.85;;;3.15;;
63534;SDS011;55128;50.230;18.944;2022-09-12T17:57:01;5.85;;;3.50;;
63534;SDS011;55128;50.230;18.944;2022-09-12T18:02:07;5.53;;;4.13;;
63534;SDS011;55128;50.230;18.944;2022-09-12T18:07:15;7.18;;;4.00;;
63534;SDS011;55128;50.230;18.944;2022-09-12T18:12:20;10.75;;;5.15;;
63534;SDS011;55128;50.230;18.944;2022-09-12T18:17:20;9.27;;;6.68;;
63534;SDS011;55128;50.230;18.944;2022-09-12T18:22:21;11.25;;;9.05;;
63534;SDS011;55128;50.230;18.944;2022-09-12T18:27:21;26.45;;;18.27;;
63534;SDS011;55128;50.230;18.944;2022-09-12T18:32:22;16.42;;;11.32;;
63534;SDS011;55128;50.230;18.944;2022-09-12T18:37:22;9.70;;;7.82;;
63534;SDS011;55128;50.230;18.944;2022-09-12T18:42:23;5.93;;;3.92;;
63534;SDS011;55128;50.230;18.944;2022-09-12T18:47:24;4.90;;;3.50;;
63534;SDS011;55128;50.230;18.944;2022-09-12T18:52:25;7.20;;;3.40;;
63534;SDS011;55128;50.230;18.944;2022-09-12T18:57:26;5.93;;;3.20;;
63534;SDS011;55128;50.230;18.944;2022-09-12T19:02:26;5.78;;;3.50;;
63534;SDS011;55128;50.230;18.944;2022-09-12T19:07:27;4.97;;;3.88;;
63534;SDS011;55128;50.230;18.944;2022-09-12T19:12:28;5.40;;;4.80;;
63534;SDS011;55128;50.230;18.944;2022-09-12T19:17:28;5.32;;;4.20;;
63534;SDS011;55128;50.230;18.944;2022-09-12T19:22:29;5.35;;;3.58;;
63534;SDS011;55128;50.230;18.944;2022-09-12T19:27:30;8.23;;;3.65;;
63534;SDS011;55128;50.230;18.944;2022-09-12T19:32:30;8.02;;;3.35;;
63534;SDS011;55128;50.230;18.944;2022-09-12T19:37:31;8.15;;;3.95;;
63534;SDS011;55128;50.230;18.944;2022-09-12T19:42:31;5.13;;;4.38;;
63534;SDS011;55128;50.230;18.944;2022-09-12T19:47:33;4.90;;;3.25;;
63534;SDS011;55128;50.230;18.944;2022-09-12T19:52:33;9.40;;;8.40;;
63534;SDS011;55128;50.230;18.944;2022-09-12T19:57:34;10.40;;;7.80;;
63534;SDS011;55128;50.230;18.944;2022-09-12T20:02:35;7.47;;;6.78;;
63534;SDS011;55128;50.230;18.944;2022-09-12T20:07:35;6.85;;;6.13;;
63534;SDS011;55128;50.230;18.944;2022-09-12T20:12:36;8.50;;;5.78;;
63534;SDS011;55128;50.230;18.944;2022-09-12T20:17:37;8.18;;;4.63;;
63534;SDS011;55128;50.230;18.944;2022-09-12T20:22:39;5.75;;;3.40;;
63534;SDS011;55128;50.230;18.944;2022-09-12T20:27:39;4.47;;;3.65;;
63534;SDS011;55128;50.230;18.944;2022-09-12T20:32:40;5.80;;;3.72;;
63534;SDS011;55128;50.230;18.944;2022-09-12T20:37:43;6.82;;;4.57;;
63534;SDS011;55128;50.230;18.944;2022-09-12T20:42:44;7.38;;;5.22;;
63534;SDS011;55128;50.230;18.944;2022-09-12T20:47:45;4.68;;;3.58;;
63534;SDS011;55128;50.230;18.944;2022-09-12T20:52:46;5.25;;;4.75;;
63534;SDS011;55128;50.230;18.944;2022-09-12T20:57:48;7.70;;;5.10;;
63534;SDS011;55128;50.230;18.944;2022-09-12T21:02:49;6.70;;;4.90;;
63534;SDS011;55128;50.230;18.944;2022-09-12T21:07:50;5.75;;;4.50;;
63534;SDS011;55128;50.230;18.944;2022-09-12T21:12:51;5.43;;;4.30;;
63534;SDS011;55128;50.230;18.944;2022-09-12T21:17:52;8.18;;;4.75;;
63534;SDS011;55128;50.230;18.944;2022-09-12T21:22:52;5.68;;;4.32;;
63534;SDS011;55128;50.230;18.944;2022-09-12T21:27:53;7.88;;;5.85;;
63534;SDS011;55128;50.230;18.944;2022-09-12T21:32:54;5.82;;;4.63;;
63534;SDS011;55128;50.230;18.944;2022-09-12T21:37:54;5.93;;;4.88;;
63534;SDS011;55128;50.230;18.944;2022-09-12T21:42:55;7.35;;;5.22;;
63534;SDS011;55128;50.230;18.944;2022-09-12T21:47:55;5.90;;;4.88;;
63534;SDS011;55128;50.230;18.944;2022-09-12T21:52:56;7.97;;;4.95;;
63534;SDS011;55128;50.230;18.944;2022-09-12T21:57:57;8.85;;;6.30;;
63534;SDS011;55128;50.230;18.944;2022-09-12T22:02:57;5.82;;;4.97;;
63534;SDS011;55128;50.230;18.944;2022-09-12T22:07:58;8.73;;;5.13;;
63534;SDS011;55128;50.230;18.944;2022-09-12T22:12:59;8.30;;;5.28;;
63534;SDS011;55128;50.230;18.944;2022-09-12T22:18:01;8.93;;;4.43;;
63534;SDS011;55128;50.230;18.944;2022-09-12T22:23:01;5.88;;;4.55;;
63534;SDS011;55128;50.230;18.944;2022-09-12T22:28:20;7.75;;;5.55;;
63534;SDS011;55128;50.230;18.944;2022-09-12T22:33:21;6.03;;;4.63;;
63534;SDS011;55128;50.230;18.944;2022-09-12T22:38:25;7.22;;;5.00;;
63534;SDS011;55128;50.230;18.944;2022-09-12T22:43:25;5.63;;;4.75;;
63534;SDS011;55128;50.230;18.944;2022-09-12T22:48:26;6.80;;;4.65;;
63534;SDS011;55128;50.230;18.944;2022-09-12T22:53:27;8.57;;;4.97;;
63534;SDS011;55128;50.230;18.944;2022-09-12T22:58:27;6.13;;;4.32;;
63534;SDS011;55128;50.230;18.944;2022-09-12T23:03:28;6.43;;;4.60;;
63534;SDS011;55128;50.230;18.944;2022-09-12T23:08:29;8.85;;;4.70;;
63534;SDS011;55128;50.230;18.944;2022-09-12T23:13:30;5.57;;;4.32;;
63534;SDS011;55128;50.230;18.944;2022-09-12T23:18:33;6.47;;;4.95;;
63534;SDS011;55128;50.230;18.944;2022-09-12T23:23:35;7.10;;;4.50;;
63534;SDS011;55128;50.230;18.944;2022-09-12T23:28:36;5.78;;;4.10;;
63534;SDS011;55128;50.230;18.944;2022-09-12T23:33:38;6.45;;;4.40;;
63534;SDS011;55128;50.230;18.944;2022-09-12T23:38:42;6.05;;;4.15;;
63534;SDS011;55128;50.230;18.944;2022-09-12T23:43:44;6.75;;;3.58;;
63534;SDS011;55128;50.230;18.944;2022-09-12T23:48:46;5.85;;;3.90;;
63534;SDS011;55128;50.230;18.944;2022-09-12T23:53:47;5.53;;;4.22;;
63534;SDS011;55128;50.230;18.944;2022-09-12T23:58:48;6.43;;;3.47;;
